createdAt,value
2023-07-20T00:05:01.047Z,19.04
2023-07-20T00:10:24.154Z,19.11
2023-07-20T00:15:47.149Z,19.02
2023-07-20T00:21:11.661Z,19.11
2023-07-20T00:26:34.632Z,19.13
2023-07-20T00:31:57.795Z,19.13
2023-07-20T00:37:22.069Z,19.08
2023-07-20T00:42:45.008Z,19.02
2023-07-20T00:48:08.978Z,18.80
2023-07-20T00:53:34.548Z,18.90
2023-07-20T00:58:58.574Z,18.90
2023-07-20T01:04:22.332Z,18.85
2023-07-20T01:09:54.361Z,18.69
2023-07-20T01:15:17.299Z,18.85
2023-07-20T01:20:40.328Z,18.73
2023-07-20T01:26:38.563Z,18.68
2023-07-20T01:32:04.929Z,18.68
2023-07-20T01:37:30.834Z,18.77
2023-07-20T01:42:54.740Z,18.67
2023-07-20T01:48:19.067Z,18.66
2023-07-20T01:53:42.016Z,18.65
2023-07-20T01:59:04.959Z,18.59
2023-07-20T02:04:29.251Z,18.58
2023-07-20T02:09:52.409Z,18.61
2023-07-20T02:15:17.474Z,18.51
2023-07-20T02:20:42.599Z,18.45
2023-07-20T02:26:05.570Z,18.44
2023-07-20T02:31:28.689Z,18.42
2023-07-20T02:36:53.116Z,18.25
2023-07-20T02:42:16.207Z,18.33
2023-07-20T02:47:39.523Z,18.30
2023-07-20T02:53:04.333Z,18.09
2023-07-20T02:58:27.468Z,18.02
2023-07-20T03:03:50.845Z,18.18
2023-07-20T03:09:16.526Z,18.30
2023-07-20T03:14:39.548Z,18.27
2023-07-20T03:20:03.873Z,18.29
2023-07-20T03:25:29.045Z,18.23
2023-07-20T03:30:55.644Z,18.23
2023-07-20T03:36:18.864Z,18.22
2023-07-20T03:41:44.114Z,18.21
2023-07-20T03:47:08.007Z,18.21
2023-07-20T03:52:31.009Z,18.21
2023-07-20T03:57:55.306Z,18.11
2023-07-20T04:03:18.926Z,17.97
2023-07-20T04:08:41.933Z,17.88
2023-07-20T04:14:06.332Z,17.77
2023-07-20T04:19:29.243Z,17.63
2023-07-20T04:24:52.133Z,17.70
2023-07-20T04:30:20.679Z,17.73
2023-07-20T04:35:48.883Z,17.92
2023-07-20T04:41:14.557Z,17.88
2023-07-20T04:46:44.762Z,17.94
2023-07-20T04:52:09.285Z,17.91
2023-07-20T04:57:33.773Z,17.81
2023-07-20T05:02:58.785Z,17.88
2023-07-20T05:08:23.221Z,17.76
2023-07-20T05:13:46.226Z,17.73
2023-07-20T05:19:10.835Z,17.82
2023-07-20T05:24:33.776Z,17.72
2023-07-20T05:29:56.859Z,17.78
2023-07-20T05:35:21.196Z,17.86
2023-07-20T05:40:44.527Z,17.83
2023-07-20T05:46:07.541Z,17.89
2023-07-20T05:51:33.061Z,17.86
2023-07-20T05:56:57.130Z,17.92
2023-07-20T06:02:20.100Z,18.07
2023-07-20T06:07:44.432Z,18.27
2023-07-20T06:13:07.914Z,18.55
2023-07-20T06:18:31.396Z,18.65
2023-07-20T06:23:55.646Z,18.56
2023-07-20T06:29:18.916Z,18.70
2023-07-20T06:34:41.838Z,18.84
2023-07-20T06:45:33.610Z,18.97
2023-07-20T06:50:56.552Z,19.08
2023-07-20T06:56:22.841Z,19.02
2023-07-20T07:01:47.762Z,18.72
2023-07-20T07:07:11.272Z,18.46
2023-07-20T07:12:36.311Z,18.44
2023-07-20T07:18:00.528Z,18.28
2023-07-20T07:23:23.686Z,18.25
2023-07-20T07:28:47.948Z,18.09
2023-07-20T07:34:10.891Z,18.24
2023-07-20T07:39:35.652Z,18.43
2023-07-20T07:45:00.219Z,18.70
2023-07-20T07:50:23.196Z,18.74
2023-07-20T07:55:46.253Z,18.60
2023-07-20T08:01:10.824Z,18.52
2023-07-20T08:06:33.950Z,18.72
2023-07-20T08:11:57.020Z,18.70
2023-07-20T08:17:21.819Z,19.00
2023-07-20T08:22:47.091Z,19.24
2023-07-20T08:28:12.323Z,19.17
2023-07-20T08:33:36.589Z,19.77
2023-07-20T08:38:59.601Z,19.86
2023-07-20T08:44:23.800Z,19.91
2023-07-20T08:49:50.521Z,20.09
2023-07-20T08:55:14.910Z,20.24
2023-07-20T09:00:38.291Z,20.38
2023-07-20T09:06:02.789Z,20.22
2023-07-20T09:11:26.314Z,19.72
2023-07-20T09:16:50.994Z,19.43
2023-07-20T09:22:15.509Z,19.74
2023-07-20T09:27:39.917Z,20.04
2023-07-20T09:33:03.056Z,20.41
2023-07-20T09:38:29.482Z,20.60
2023-07-20T09:43:52.760Z,20.48
2023-07-20T09:54:46.955Z,20.56
2023-07-20T10:05:45.152Z,20.71
2023-07-20T10:11:10.485Z,20.62
2023-07-20T10:16:38.382Z,20.81
2023-07-20T10:22:10.308Z,20.82
2023-07-20T10:27:34.959Z,21.03
2023-07-20T10:32:58.055Z,21.25
2023-07-20T10:38:21.405Z,21.27
2023-07-20T10:43:46.215Z,21.08
2023-07-20T10:49:10.959Z,21.20
2023-07-20T10:54:49.677Z,21.39
2023-07-20T11:00:16.150Z,21.58
2023-07-20T11:05:41.622Z,21.42
2023-07-20T11:11:24.914Z,21.41
2023-07-20T11:16:51.756Z,21.67
2023-07-20T11:22:14.834Z,21.66
2023-07-20T11:27:46.416Z,21.96
2023-07-20T11:33:11.572Z,22.03
2023-07-20T11:38:34.631Z,22.11
2023-07-20T11:44:01.602Z,22.41
2023-07-20T11:49:26.921Z,22.52
2023-07-20T11:54:51.935Z,22.46
2023-07-20T12:00:17.062Z,22.41
2023-07-20T12:11:07.339Z,22.19
2023-07-20T12:16:31.119Z,22.31
2023-07-20T12:22:00.813Z,22.72
2023-07-20T12:27:23.751Z,22.96
2023-07-20T12:32:46.685Z,22.83
2023-07-20T12:38:11.142Z,22.61
2023-07-20T12:43:34.170Z,22.49
2023-07-20T12:48:58.044Z,22.33
2023-07-20T12:54:22.284Z,22.38
2023-07-20T12:59:45.178Z,22.78
2023-07-20T13:05:08.456Z,23.17
2023-07-20T13:10:35.973Z,23.14
2023-07-20T13:15:59.616Z,23.03
2023-07-20T13:21:24.028Z,22.97
2023-07-20T13:26:49.483Z,23.38
2023-07-20T13:32:12.427Z,23.45
2023-07-20T13:37:35.407Z,23.58
2023-07-20T13:48:25.114Z,23.54
2023-07-20T13:53:52.379Z,23.39
2023-07-20T13:59:16.998Z,23.00
2023-07-20T14:04:40.129Z,22.94
2023-07-20T14:15:30.414Z,22.82
2023-07-20T14:20:53.454Z,23.53
2023-07-20T14:26:16.442Z,24.19
2023-07-20T14:31:40.865Z,24.31
2023-07-20T14:37:05.191Z,23.95
2023-07-20T14:42:28.393Z,23.84
2023-07-20T14:47:55.274Z,23.68
2023-07-20T14:53:19.035Z,23.44
2023-07-20T14:58:42.293Z,23.44
2023-07-20T15:04:06.697Z,23.64
2023-07-20T15:09:29.768Z,23.80
2023-07-20T15:15:05.525Z,23.97
2023-07-20T15:20:33.082Z,23.91
2023-07-20T15:25:56.157Z,23.70
2023-07-20T15:31:19.163Z,23.43
2023-07-20T15:36:43.828Z,23.37
2023-07-20T15:42:08.062Z,23.27
2023-07-20T15:47:31.446Z,23.13
2023-07-20T15:52:58.312Z,23.07
2023-07-20T15:58:21.555Z,23.07
2023-07-20T16:03:44.486Z,23.01
2023-07-20T16:09:09.286Z,22.96
2023-07-20T16:15:06.523Z,22.88
2023-07-20T16:20:15.147Z,22.80
2023-07-20T16:25:39.595Z,22.70
2023-07-20T16:31:02.554Z,22.63
2023-07-20T16:36:25.679Z,22.55
2023-07-20T16:47:15.904Z,22.52
2023-07-20T16:52:38.863Z,22.53
2023-07-20T16:58:03.154Z,22.52
2023-07-20T17:03:26.134Z,22.56
2023-07-20T17:08:49.253Z,22.54
2023-07-20T17:14:13.977Z,22.36
2023-07-20T17:19:37.343Z,22.38
2023-07-20T17:30:29.323Z,22.25
2023-07-20T17:35:52.228Z,22.05
2023-07-20T17:41:16.171Z,22.02
2023-07-20T17:52:07.294Z,21.89
2023-07-20T17:57:30.253Z,21.86
2023-07-20T18:02:54.665Z,21.80
2023-07-20T18:08:17.602Z,21.71
2023-07-20T18:13:40.718Z,21.61
2023-07-20T18:19:05.077Z,21.56
2023-07-20T18:24:28.574Z,21.52
2023-07-20T18:29:53.006Z,21.41
2023-07-20T18:35:17.382Z,21.30
2023-07-20T18:40:41.017Z,21.27
2023-07-20T18:46:04.869Z,21.19
2023-07-20T18:51:29.793Z,21.12
2023-07-20T18:56:53.460Z,21.09
2023-07-20T19:02:16.615Z,21.06
2023-07-20T19:07:41.081Z,20.98
2023-07-20T19:13:04.060Z,20.95
2023-07-20T19:18:27.759Z,20.95
2023-07-20T19:23:52.172Z,20.85
2023-07-20T19:29:15.320Z,20.86
2023-07-20T19:34:38.277Z,20.80
2023-07-20T19:40:02.684Z,20.80
2023-07-20T19:45:26.245Z,20.76
2023-07-20T19:50:51.265Z,20.70
2023-07-20T19:56:15.544Z,20.73
2023-07-20T20:07:08.689Z,20.73
2023-07-20T20:12:34.606Z,20.77
2023-07-20T20:18:00.624Z,20.75
2023-07-20T20:23:23.970Z,20.75
2023-07-20T20:28:48.490Z,20.74
2023-07-20T20:34:11.583Z,20.61
2023-07-20T20:39:34.649Z,20.49
2023-07-20T20:44:59.135Z,20.40
2023-07-20T20:50:22.169Z,20.23
2023-07-20T20:55:45.121Z,19.95
2023-07-20T21:01:09.590Z,19.84
2023-07-20T21:06:32.625Z,19.75
2023-07-20T21:11:56.405Z,19.79
2023-07-20T21:17:20.637Z,19.74
2023-07-20T21:22:44.352Z,19.65
2023-07-20T21:28:07.549Z,19.57
2023-07-20T21:33:32.291Z,19.45
2023-07-20T21:38:55.537Z,19.50
2023-07-20T21:44:24.048Z,19.47
2023-07-20T21:49:54.263Z,19.43
2023-07-20T21:55:19.538Z,19.35
2023-07-20T22:00:42.710Z,19.37
2023-07-20T22:06:07.541Z,19.26
2023-07-20T22:11:31.745Z,19.17
2023-07-20T22:16:56.645Z,19.07
2023-07-20T22:22:20.996Z,18.93
2023-07-20T22:27:44.624Z,18.86
2023-07-20T22:33:07.675Z,18.76
2023-07-20T22:38:31.932Z,18.85
2023-07-20T22:43:54.842Z,18.90
2023-07-20T22:49:17.789Z,18.74
2023-07-20T22:54:42.144Z,18.64
2023-07-20T23:00:10.071Z,18.51
2023-07-20T23:05:32.999Z,18.52
2023-07-20T23:10:57.692Z,18.30
2023-07-20T23:16:20.740Z,18.08
2023-07-20T23:21:44.298Z,18.12
2023-07-20T23:27:08.688Z,17.98
2023-07-20T23:32:31.724Z,18.03
2023-07-20T23:37:56.140Z,17.99
2023-07-20T23:43:20.450Z,17.86
2023-07-20T23:48:43.652Z,17.74
2023-07-20T23:54:06.761Z,17.76
2023-07-20T23:59:31.035Z,17.72
